createdAt,value
2023-04-25T00:01:07.834Z,77.57
2023-04-25T00:03:36.557Z,77.66
2023-04-25T00:06:07.586Z,77.60
2023-04-25T00:08:35.924Z,77.19
2023-04-25T00:11:04.208Z,76.98
2023-04-25T00:13:32.603Z,76.37
2023-04-25T00:16:01.342Z,76.31
2023-04-25T00:18:29.968Z,75.29
2023-04-25T00:20:58.534Z,74.10
2023-04-25T00:23:28.251Z,74.81
2023-04-25T00:25:56.515Z,75.49
2023-04-25T00:28:24.776Z,75.40
2023-04-25T00:30:53.032Z,74.97
2023-04-25T00:33:21.315Z,74.06
2023-04-25T00:35:49.780Z,73.34
2023-04-25T00:38:18.034Z,73.59
2023-04-25T00:40:47.676Z,73.48
2023-04-25T00:43:16.322Z,73.45
2023-04-25T00:45:45.676Z,74.36
2023-04-25T00:48:15.922Z,74.20
2023-04-25T00:50:49.468Z,74.12
2023-04-25T00:53:17.850Z,74.18
2023-04-25T00:55:47.560Z,74.28
2023-04-25T00:58:16.225Z,74.79
2023-04-25T01:00:44.650Z,74.94
2023-04-25T01:03:13.665Z,75.15
2023-04-25T01:05:43.343Z,72.87
2023-04-25T01:08:12.176Z,71.91
2023-04-25T01:10:40.487Z,70.99
2023-04-25T01:13:10.366Z,70.97
2023-04-25T01:15:38.851Z,71.10
2023-04-25T01:18:08.482Z,70.71
2023-04-25T01:20:37.032Z,70.65
2023-04-25T01:23:07.732Z,70.34
2023-04-25T01:25:36.593Z,69.65
2023-04-25T01:28:04.922Z,69.45
2023-04-25T01:30:34.223Z,69.90
2023-04-25T01:33:03.718Z,70.19
2023-04-25T01:35:32.474Z,69.92
2023-04-25T01:38:01.397Z,70.44
2023-04-25T01:40:31.554Z,71.50
2023-04-25T01:42:59.826Z,72.22
2023-04-25T01:45:28.332Z,71.92
2023-04-25T01:48:00.358Z,72.32
2023-04-25T01:50:28.798Z,73.70
2023-04-25T01:52:57.895Z,74.02
2023-04-25T01:55:26.242Z,74.29
2023-04-25T01:58:03.512Z,73.70
2023-04-25T02:00:50.228Z,73.80
2023-04-25T02:03:18.709Z,73.35
2023-04-25T02:05:47.149Z,72.62
2023-04-25T02:08:15.944Z,72.73
2023-04-25T02:10:44.128Z,71.43
2023-04-25T02:13:19.184Z,70.79
2023-04-25T02:16:08.324Z,70.71
2023-04-25T02:18:40.225Z,70.82
2023-04-25T02:21:08.844Z,70.26
2023-04-25T02:23:37.929Z,69.97
2023-04-25T02:26:06.521Z,69.70
2023-04-25T02:28:36.214Z,69.07
2023-04-25T02:31:06.921Z,68.82
2023-04-25T02:33:36.349Z,69.24
2023-04-25T02:36:07.555Z,68.55
2023-04-25T02:38:35.911Z,68.48
2023-04-25T02:41:05.883Z,68.36
2023-04-25T02:43:34.149Z,68.57
2023-04-25T02:46:03.749Z,68.10
2023-04-25T02:48:32.082Z,68.18
2023-04-25T02:51:00.328Z,67.95
2023-04-25T02:53:29.283Z,67.97
2023-04-25T02:55:59.450Z,67.84
2023-04-25T02:58:28.043Z,67.72
2023-04-25T03:00:56.406Z,67.98
2023-04-25T03:03:26.329Z,67.63
2023-04-25T03:05:55.077Z,67.52
2023-04-25T03:08:30.592Z,67.33
2023-04-25T03:10:59.427Z,67.99
2023-04-25T03:13:28.492Z,67.72
2023-04-25T03:15:56.820Z,67.92
2023-04-25T03:18:26.653Z,68.00
2023-04-25T03:20:56.621Z,67.79
2023-04-25T03:23:25.661Z,68.18
2023-04-25T03:25:53.927Z,67.76
2023-04-25T03:28:22.301Z,67.93
2023-04-25T03:30:50.523Z,68.59
2023-04-25T03:33:18.839Z,68.68
2023-04-25T03:35:48.427Z,69.13
2023-04-25T03:38:16.763Z,69.41
2023-04-25T03:40:45.099Z,69.06
2023-04-25T03:43:22.978Z,69.22
2023-04-25T03:45:57.096Z,69.02
2023-04-25T03:48:27.641Z,69.65
2023-04-25T03:50:57.483Z,68.96
2023-04-25T03:53:26.322Z,68.94
2023-04-25T03:56:13.097Z,68.99
2023-04-25T03:58:42.160Z,68.81
2023-04-25T04:01:10.714Z,69.49
2023-04-25T04:03:40.876Z,69.24
2023-04-25T04:06:11.848Z,68.98
2023-04-25T04:08:46.004Z,69.29
2023-04-25T04:11:14.633Z,69.21
2023-04-25T04:13:42.879Z,69.64
2023-04-25T04:16:12.375Z,69.65
2023-04-25T04:18:41.408Z,69.25
2023-04-25T04:21:11.058Z,69.35
2023-04-25T04:23:42.351Z,69.99
2023-04-25T04:26:12.430Z,70.00
2023-04-25T04:29:00.333Z,69.47
2023-04-25T04:31:43.067Z,69.42
2023-04-25T04:34:13.787Z,69.31
2023-04-25T04:36:46.108Z,69.14
2023-04-25T04:39:15.172Z,69.46
2023-04-25T04:41:57.474Z,69.58
2023-04-25T04:44:36.459Z,68.97
2023-04-25T04:47:25.116Z,68.49
2023-04-25T04:50:20.132Z,70.25
2023-04-25T04:53:19.235Z,68.51
2023-04-25T04:56:05.620Z,69.66
2023-04-25T04:58:53.512Z,68.65
2023-04-25T05:01:40.746Z,68.90
2023-04-25T05:04:41.525Z,68.83
2023-04-25T05:07:29.226Z,69.04
2023-04-25T05:10:04.915Z,68.74
2023-04-25T05:12:47.102Z,69.02
2023-04-25T05:15:34.487Z,68.98
2023-04-25T05:18:23.584Z,69.05
2023-04-25T05:21:30.672Z,69.04
2023-04-25T05:24:10.159Z,69.15
2023-04-25T05:26:58.454Z,69.03
2023-04-25T05:29:52.759Z,69.30
2023-04-25T05:32:28.346Z,69.72
2023-04-25T05:34:57.418Z,69.83
2023-04-25T05:37:33.760Z,69.20
2023-04-25T05:40:20.817Z,69.21
2023-04-25T05:43:00.570Z,69.75
2023-04-25T05:45:28.879Z,69.61
2023-04-25T05:48:17.349Z,69.71
2023-04-25T05:51:04.626Z,69.24
2023-04-25T05:53:41.513Z,69.31
2023-04-25T05:56:10.410Z,69.62
2023-04-25T05:58:40.006Z,69.61
2023-04-25T06:01:09.966Z,68.74
2023-04-25T06:03:39.187Z,69.26
2023-04-25T06:06:07.954Z,69.52
2023-04-25T06:08:36.508Z,68.95
2023-04-25T06:11:05.824Z,69.55
2023-04-25T06:13:34.284Z,69.64
2023-04-25T06:16:04.284Z,69.68
2023-04-25T06:18:32.921Z,69.18
2023-04-25T06:21:01.516Z,70.44
2023-04-25T06:23:29.849Z,68.48
2023-04-25T06:26:04.389Z,70.55
2023-04-25T06:28:33.862Z,71.38
2023-04-25T06:31:02.182Z,71.51
2023-04-25T06:33:32.276Z,69.87
2023-04-25T06:36:01.330Z,70.17
2023-04-25T06:38:30.636Z,70.32
2023-04-25T06:40:59.523Z,69.63
2023-04-25T06:43:34.133Z,71.75
2023-04-25T06:46:21.160Z,70.21
2023-04-25T06:48:52.770Z,69.77
2023-04-25T06:51:24.169Z,71.21
2023-04-25T06:53:55.370Z,68.84
2023-04-25T06:56:32.511Z,70.60
2023-04-25T06:59:07.152Z,70.71
2023-04-25T07:01:37.995Z,69.66
2023-04-25T07:04:12.935Z,69.78
2023-04-25T07:06:48.521Z,69.25
2023-04-25T07:09:19.490Z,69.53
2023-04-25T07:11:49.633Z,70.61
2023-04-25T07:14:17.951Z,69.71
2023-04-25T07:16:47.071Z,70.54
2023-04-25T07:19:16.808Z,71.13
2023-04-25T07:21:45.613Z,69.95
2023-04-25T07:24:14.053Z,70.75
2023-04-25T07:26:46.872Z,70.87
2023-04-25T07:29:27.913Z,71.16
2023-04-25T07:31:56.264Z,70.07
2023-04-25T07:34:25.879Z,70.26
2023-04-25T07:36:54.783Z,70.01
2023-04-25T07:39:25.201Z,69.96
2023-04-25T07:41:55.348Z,70.34
2023-04-25T07:44:27.662Z,68.52
2023-04-25T07:46:56.204Z,68.34
2023-04-25T07:49:25.880Z,68.47
2023-04-25T07:51:54.126Z,70.10
2023-04-25T07:54:23.036Z,68.07
2023-04-25T07:56:58.747Z,69.63
2023-04-25T07:59:31.889Z,68.39
2023-04-25T08:02:03.507Z,69.24
2023-04-25T08:04:34.241Z,69.84
2023-04-25T08:07:05.965Z,69.45
2023-04-25T08:09:46.710Z,69.23
2023-04-25T08:12:24.190Z,69.31
2023-04-25T08:14:53.276Z,69.23
2023-04-25T08:17:21.933Z,68.12
2023-04-25T08:19:51.742Z,67.68
2023-04-25T08:22:33.016Z,68.57
2023-04-25T08:25:33.555Z,68.81
2023-04-25T08:28:03.926Z,72.28
2023-04-25T08:30:33.135Z,70.72
2023-04-25T08:33:01.614Z,70.75
2023-04-25T08:36:00.701Z,67.88
2023-04-25T08:38:30.384Z,71.51
2023-04-25T08:41:01.916Z,70.03
2023-04-25T08:43:32.026Z,70.32
2023-04-25T08:46:02.178Z,69.20
2023-04-25T08:49:02.449Z,69.85
2023-04-25T08:51:34.702Z,70.50
2023-04-25T08:54:27.969Z,70.15
2023-04-25T08:57:05.286Z,69.34
2023-04-25T08:59:36.115Z,68.96
2023-04-25T09:02:05.626Z,68.68
2023-04-25T09:04:34.176Z,67.41
2023-04-25T09:07:03.838Z,68.39
2023-04-25T09:09:32.346Z,69.72
2023-04-25T09:12:02.683Z,70.30
2023-04-25T09:14:31.164Z,66.85
2023-04-25T09:17:13.856Z,71.42
2023-04-25T09:19:52.066Z,70.17
2023-04-25T09:22:40.234Z,70.34
2023-04-25T09:25:11.726Z,70.32
2023-04-25T09:27:52.581Z,71.05
2023-04-25T09:30:31.972Z,67.88
2023-04-25T09:33:08.863Z,68.27
2023-04-25T09:35:39.577Z,67.78
2023-04-25T09:38:13.592Z,68.89
2023-04-25T09:41:01.741Z,66.56
2023-04-25T09:43:51.740Z,66.07
2023-04-25T09:46:22.279Z,65.70
2023-04-25T09:48:55.240Z,66.62
2023-04-25T09:51:37.372Z,66.04
2023-04-25T09:54:09.042Z,65.96
2023-04-25T09:56:53.248Z,68.95
2023-04-25T09:59:24.224Z,69.00
2023-04-25T10:01:54.393Z,67.39
2023-04-25T10:04:36.557Z,68.46
2023-04-25T10:07:19.891Z,69.96
2023-04-25T10:09:51.880Z,68.10
2023-04-25T10:12:21.009Z,69.99
2023-04-25T10:14:49.799Z,69.65
2023-04-25T10:17:18.734Z,67.07
2023-04-25T10:19:47.160Z,69.95
2023-04-25T10:22:20.752Z,70.63
2023-04-25T10:24:51.987Z,68.84
2023-04-25T10:27:20.506Z,68.27
2023-04-25T10:30:03.395Z,69.29
2023-04-25T10:32:33.599Z,70.74
2023-04-25T10:35:13.369Z,68.51
2023-04-25T10:37:59.455Z,68.23
2023-04-25T10:40:29.297Z,69.06
2023-04-25T10:42:58.016Z,70.77
2023-04-25T10:45:26.234Z,70.56
2023-04-25T10:47:54.601Z,108.83
2023-04-25T10:50:22.853Z,111.10
2023-04-25T10:52:51.079Z,113.66
2023-04-25T10:55:19.325Z,114.94
2023-04-25T10:57:50.945Z,112.26
2023-04-25T11:00:25.636Z,113.44
2023-04-25T11:03:01.987Z,111.62
2023-04-25T11:05:36.498Z,110.77
2023-04-25T11:08:15.056Z,112.42
2023-04-25T11:10:43.864Z,114.29
2023-04-25T11:13:13.519Z,114.52
2023-04-25T11:15:41.849Z,112.75
2023-04-25T11:18:12.706Z,106.48
2023-04-25T11:20:41.235Z,105.79
2023-04-25T11:23:09.476Z,105.77
2023-04-25T11:25:39.174Z,110.35
2023-04-25T11:28:07.616Z,111.52
2023-04-25T11:30:37.262Z,112.18
2023-04-25T11:33:05.676Z,117.09
2023-04-25T11:35:34.730Z,118.05
2023-04-25T11:38:03.632Z,118.89
2023-04-25T11:40:32.994Z,117.50
2023-04-25T11:43:03.007Z,-5.50
2023-04-25T11:45:32.162Z,110.94
2023-04-25T11:48:03.822Z,107.38
2023-04-25T11:50:32.101Z,107.24
2023-04-25T11:53:00.372Z,105.24
2023-04-25T11:55:32.369Z,104.54
2023-04-25T11:58:03.312Z,101.02
2023-04-25T12:00:31.704Z,101.64
2023-04-25T12:03:01.676Z,105.95
2023-04-25T12:05:33.796Z,103.66
2023-04-25T12:08:13.931Z,97.99
2023-04-25T12:10:43.059Z,98.79
2023-04-25T12:13:22.331Z,100.32
2023-04-25T12:15:51.003Z,102.29
2023-04-25T12:18:23.310Z,101.29
2023-04-25T12:20:51.698Z,104.31
2023-04-25T12:23:29.447Z,106.67
2023-04-25T12:25:58.899Z,107.69
2023-04-25T12:28:28.689Z,108.65
2023-04-25T12:31:01.928Z,111.23
2023-04-25T12:33:33.454Z,112.26
2023-04-25T12:36:06.574Z,112.42
2023-04-25T12:38:38.304Z,109.88
2023-04-25T12:41:06.974Z,106.88
2023-04-25T12:43:35.316Z,106.32
2023-04-25T12:46:03.867Z,101.88
2023-04-25T12:48:33.871Z,102.88
2023-04-25T12:51:02.582Z,103.66
2023-04-25T12:53:30.838Z,104.12
2023-04-25T12:55:59.168Z,106.82
2023-04-25T12:58:27.363Z,104.36
2023-04-25T13:00:55.783Z,106.50
2023-04-25T13:03:24.393Z,105.47
2023-04-25T13:05:54.134Z,99.63
2023-04-25T13:08:22.407Z,102.33
2023-04-25T13:10:50.646Z,104.70
2023-04-25T13:13:18.937Z,104.50
2023-04-25T13:15:47.233Z,108.84
2023-04-25T13:18:15.708Z,107.14
2023-04-25T13:20:43.958Z,110.17
2023-04-25T13:23:13.671Z,108.78
2023-04-25T13:25:42.120Z,110.11
2023-04-25T13:28:10.390Z,107.19
2023-04-25T13:30:38.728Z,106.23
2023-04-25T13:33:07.745Z,104.57
2023-04-25T13:35:37.741Z,104.56
2023-04-25T13:38:06.573Z,101.56
2023-04-25T13:40:36.353Z,102.76
2023-04-25T13:43:04.830Z,101.03
2023-04-25T13:45:33.720Z,101.51
2023-04-25T13:48:02.722Z,103.99
2023-04-25T13:50:31.286Z,104.40
2023-04-25T13:52:59.558Z,106.52
2023-04-25T13:55:28.238Z,106.63
2023-04-25T13:57:57.863Z,101.45
2023-04-25T14:00:26.266Z,99.74
2023-04-25T14:02:54.744Z,100.03
2023-04-25T14:05:23.010Z,97.53
2023-04-25T14:07:51.433Z,97.26
2023-04-25T14:10:19.703Z,96.29
2023-04-25T14:12:47.970Z,95.12
2023-04-25T14:15:17.751Z,99.51
2023-04-25T14:17:46.875Z,101.18
2023-04-25T14:20:15.342Z,102.90
2023-04-25T14:22:44.744Z,99.70
2023-04-25T14:25:13.071Z,99.15
2023-04-25T14:27:41.344Z,95.97
2023-04-25T14:30:12.851Z,95.14
2023-04-25T14:32:42.991Z,95.53
2023-04-25T14:35:11.438Z,98.59
2023-04-25T14:37:40.319Z,100.27
2023-04-25T14:40:11.523Z,100.43
2023-04-25T14:42:40.054Z,96.44
2023-04-25T14:45:09.956Z,92.98
2023-04-25T14:47:38.900Z,95.07
2023-04-25T14:50:10.305Z,90.77
2023-04-25T14:52:38.708Z,88.67
2023-04-25T14:55:08.392Z,89.35
2023-04-25T14:57:37.095Z,87.87
2023-04-25T15:00:09.548Z,90.75
2023-04-25T15:02:38.328Z,91.30
2023-04-25T15:05:09.596Z,91.69
2023-04-25T15:07:37.957Z,96.07
2023-04-25T15:10:07.251Z,97.53
2023-04-25T15:12:35.541Z,92.37
2023-04-25T15:15:03.978Z,87.46
2023-04-25T15:17:32.813Z,89.87
2023-04-25T15:20:01.427Z,90.27
2023-04-25T15:22:31.294Z,91.02
2023-04-25T15:24:59.583Z,92.30
2023-04-25T15:27:28.669Z,95.75
2023-04-25T15:29:56.954Z,99.61
2023-04-25T15:32:25.417Z,102.55
2023-04-25T15:34:53.767Z,96.78
2023-04-25T15:37:21.993Z,101.38
2023-04-25T15:40:05.104Z,102.25
2023-04-25T15:42:33.481Z,102.45
2023-04-25T15:45:01.704Z,103.23
2023-04-25T15:47:30.247Z,104.01
2023-04-25T15:49:58.566Z,100.82
2023-04-25T15:52:27.662Z,99.06
2023-04-25T15:54:57.263Z,99.61
2023-04-25T15:57:25.970Z,101.18
2023-04-25T15:59:54.223Z,101.19
2023-04-25T16:02:22.574Z,100.55
2023-04-25T16:04:51.607Z,102.35
2023-04-25T16:07:20.333Z,101.02
2023-04-25T16:09:48.604Z,101.73
2023-04-25T16:12:22.991Z,104.56
2023-04-25T16:14:51.535Z,102.83
2023-04-25T16:17:19.806Z,102.01
2023-04-25T16:19:48.104Z,95.07
2023-04-25T16:22:16.685Z,91.82
2023-04-25T16:24:45.291Z,90.97
2023-04-25T16:27:14.008Z,87.57
2023-04-25T16:29:43.871Z,83.42
2023-04-25T16:32:13.445Z,83.39
2023-04-25T16:34:41.718Z,82.75
2023-04-25T16:37:10.586Z,81.25
2023-04-25T16:39:38.965Z,83.61
2023-04-25T16:42:07.328Z,83.74
2023-04-25T16:44:35.999Z,83.90
2023-04-25T16:47:06.157Z,81.33
2023-04-25T16:49:34.764Z,79.79
2023-04-25T16:52:03.581Z,80.79
2023-04-25T16:54:31.832Z,84.19
2023-04-25T16:57:00.069Z,82.96
2023-04-25T16:59:28.451Z,80.68
2023-04-25T17:01:56.739Z,84.28
2023-04-25T17:04:26.906Z,88.76
2023-04-25T17:06:55.392Z,91.79
2023-04-25T17:09:23.670Z,91.99
2023-04-25T17:11:51.974Z,96.71
2023-04-25T17:14:20.320Z,99.83
2023-04-25T17:16:49.676Z,102.10
2023-04-25T17:19:18.145Z,103.25
2023-04-25T17:21:47.871Z,104.34
2023-04-25T17:24:22.219Z,103.41
2023-04-25T17:26:50.709Z,99.84
2023-04-25T17:29:19.189Z,96.90
2023-04-25T17:31:47.857Z,98.49
2023-04-25T17:34:18.487Z,98.80
2023-04-25T17:36:48.631Z,99.32
2023-04-25T17:39:17.595Z,99.80
2023-04-25T17:41:46.264Z,101.31
2023-04-25T17:44:14.846Z,100.20
2023-04-25T17:46:43.138Z,101.48
2023-04-25T17:49:11.812Z,100.93
2023-04-25T17:51:40.036Z,100.01
2023-04-25T17:54:10.432Z,101.50
2023-04-25T17:56:40.788Z,100.89
2023-04-25T17:59:09.793Z,100.22
2023-04-25T18:01:38.120Z,100.31
2023-04-25T18:04:06.828Z,101.82
2023-04-25T18:06:35.068Z,103.01
2023-04-25T18:09:15.871Z,103.52
2023-04-25T18:11:46.469Z,103.90
2023-04-25T18:14:16.889Z,104.52
2023-04-25T18:16:45.944Z,105.08
2023-04-25T18:19:15.964Z,105.59
2023-04-25T18:21:45.397Z,106.07
2023-04-25T18:24:13.884Z,106.63
2023-04-25T18:26:42.190Z,107.04
2023-04-25T18:29:25.517Z,106.72
2023-04-25T18:32:00.554Z,106.93
2023-04-25T18:34:28.949Z,106.17
2023-04-25T18:36:57.973Z,106.40
2023-04-25T18:39:27.887Z,107.23
2023-04-25T18:42:04.084Z,106.76
2023-04-25T18:44:39.558Z,106.36
2023-04-25T18:47:08.414Z,106.69
2023-04-25T18:49:37.486Z,106.37
2023-04-25T18:52:08.647Z,106.44
2023-04-25T18:54:37.046Z,105.08
2023-04-25T18:57:06.238Z,105.43
2023-04-25T18:59:36.203Z,106.13
2023-04-25T19:02:05.588Z,105.19
2023-04-25T19:04:34.520Z,105.94
2023-04-25T19:07:04.215Z,104.91
2023-04-25T19:09:32.594Z,106.14
2023-04-25T19:12:01.846Z,103.95
2023-04-25T19:14:30.231Z,101.93
2023-04-25T19:17:00.470Z,104.18
2023-04-25T19:19:29.005Z,103.91
2023-04-25T19:21:57.479Z,103.04
2023-04-25T19:24:25.898Z,101.84
2023-04-25T19:26:54.260Z,101.80
2023-04-25T19:29:22.735Z,100.48
2023-04-25T19:31:51.495Z,104.44
2023-04-25T19:34:21.151Z,103.42
2023-04-25T19:36:52.695Z,102.60
2023-04-25T19:39:21.122Z,103.51
2023-04-25T19:41:49.531Z,104.66
2023-04-25T19:44:18.112Z,102.72
2023-04-25T19:46:46.999Z,103.25
2023-04-25T19:49:15.623Z,104.37
2023-04-25T19:51:46.356Z,102.79
2023-04-25T19:54:14.586Z,100.70
2023-04-25T19:56:43.458Z,100.74
2023-04-25T19:59:11.856Z,101.57
2023-04-25T20:01:40.175Z,101.42
2023-04-25T20:04:08.526Z,101.97
2023-04-25T20:06:36.826Z,101.05
2023-04-25T20:09:09.412Z,94.52
2023-04-25T20:11:38.011Z,96.74
2023-04-25T20:14:06.496Z,94.44
2023-04-25T20:16:34.891Z,93.24
2023-04-25T20:19:04.327Z,90.15
2023-04-25T20:21:34.176Z,87.48
2023-04-25T20:24:02.671Z,85.09
2023-04-25T20:26:34.013Z,85.00
2023-04-25T20:29:02.972Z,85.70
2023-04-25T20:31:31.973Z,83.90
2023-04-25T20:34:00.972Z,83.75
2023-04-25T20:36:29.726Z,83.84
2023-04-25T20:38:58.058Z,82.96
2023-04-25T20:41:26.321Z,82.10
2023-04-25T20:43:55.969Z,83.07
2023-04-25T20:46:24.883Z,81.37
2023-04-25T20:48:53.690Z,79.69
2023-04-25T20:51:22.946Z,79.06
2023-04-25T20:53:51.372Z,79.50
2023-04-25T20:56:20.692Z,79.57
2023-04-25T20:58:48.938Z,79.84
2023-04-25T21:01:19.036Z,78.78
2023-04-25T21:03:50.151Z,78.05
2023-04-25T21:06:18.649Z,80.51
2023-04-25T21:08:47.334Z,82.04
2023-04-25T21:11:15.944Z,83.49
2023-04-25T21:13:44.147Z,82.11
2023-04-25T21:16:12.473Z,80.15
2023-04-25T21:18:42.081Z,78.95
2023-04-25T21:21:11.279Z,78.51
2023-04-25T21:23:39.512Z,79.27
2023-04-25T21:26:07.752Z,78.53
2023-04-25T21:28:35.972Z,77.48
2023-04-25T21:31:04.551Z,76.22
2023-04-25T21:33:32.919Z,75.05
2023-04-25T21:36:02.522Z,75.56
2023-04-25T21:38:30.815Z,75.12
2023-04-25T21:40:59.158Z,73.39
2023-04-25T21:43:27.379Z,73.76
2023-04-25T21:46:15.291Z,74.02
2023-04-25T21:48:43.866Z,73.93
2023-04-25T21:51:13.521Z,72.81
2023-04-25T21:53:42.314Z,73.33
2023-04-25T21:56:11.358Z,72.18
2023-04-25T21:58:39.535Z,71.51
2023-04-25T22:01:07.820Z,71.43
2023-04-25T22:03:36.407Z,71.71
2023-04-25T22:06:05.002Z,74.83
2023-04-25T22:08:34.778Z,73.24
2023-04-25T22:11:03.278Z,72.83
2023-04-25T22:13:33.410Z,73.37
2023-04-25T22:16:02.086Z,71.65
2023-04-25T22:18:30.565Z,71.07
2023-04-25T22:20:58.799Z,68.50
2023-04-25T22:23:27.082Z,67.19
2023-04-25T22:25:57.095Z,66.80
2023-04-25T22:28:25.327Z,66.30
2023-04-25T22:30:53.624Z,66.07
2023-04-25T22:33:22.049Z,65.72
2023-04-25T22:35:50.371Z,65.30
2023-04-25T22:38:18.638Z,65.01
2023-04-25T22:40:47.976Z,64.84
2023-04-25T22:43:17.818Z,64.58
2023-04-25T22:45:46.064Z,64.47
2023-04-25T22:48:14.449Z,64.63
2023-04-25T22:50:42.705Z,64.63
2023-04-25T22:53:11.653Z,64.43
2023-04-25T22:55:40.094Z,64.76
2023-04-25T22:58:09.677Z,64.11
2023-04-25T23:00:41.421Z,64.15
2023-04-25T23:03:10.978Z,64.58
2023-04-25T23:05:39.356Z,64.15
2023-04-25T23:08:07.561Z,64.24
2023-04-25T23:10:37.033Z,63.98
2023-04-25T23:13:05.446Z,64.02
2023-04-25T23:15:34.860Z,64.16
2023-04-25T23:18:04.675Z,64.06
2023-04-25T23:20:33.739Z,63.83
2023-04-25T23:23:01.955Z,63.70
2023-04-25T23:25:30.165Z,63.83
2023-04-25T23:27:58.489Z,63.72
2023-04-25T23:30:26.930Z,63.75
2023-04-25T23:32:55.200Z,63.61
2023-04-25T23:35:24.891Z,63.56
2023-04-25T23:37:53.323Z,63.61
2023-04-25T23:40:21.701Z,63.42
2023-04-25T23:42:49.940Z,63.66
2023-04-25T23:45:18.183Z,63.60
2023-04-25T23:47:46.750Z,63.24
2023-04-25T23:50:15.055Z,63.74
2023-04-25T23:52:44.661Z,63.50
2023-04-25T23:55:12.911Z,64.08
2023-04-25T23:57:44.270Z,63.17
